Monday, June 25, 2018, 12:16 AM EDT
Back to Local

KTTN, Trenton Mercer County Airport

Location: Trenton, NJ, United States Lat: 40.283
Local Time: 12:16 AM EDT ( 4:16 GMT) Lon: -74.817
Time Zone: US/Eastern Elev: 213 ft

Show me the last for .
Show Decoded

2018-06-24 23:53 METAR KTTN 250353Z AUTO 00000KT 10SM CLR 22/19 A2984 RMK AO2 SLP098 T02220189 =
2018-06-24 22:53 METAR KTTN 250253Z AUTO 28003KT 10SM CLR 23/19 A2984 RMK AO2 SLP096 60001
                 T02280189 50014 =
2018-06-24 21:53 METAR KTTN 250153Z 25003KT 10SM FEW045 FEW060 OVC110 24/19 A2984 RMK AO2 SLP097
                 T02390189 =
2018-06-24 20:53 METAR KTTN 250053Z 27006KT 10SM SCT060 BKN110 25/18 A2980 RMK AO2 LTG DSNT NE
                 RAE20 SLP084 P0001 T02500183 =
2018-06-24 19:53 METAR KTTN 242353Z 26005KT 10SM -RA FEW080 OVC110 28/20 A2980 RMK AO2 LTG DSNT
                 SW AND W RAB33 SLP081 P0000 60000 T02780200 10317 20278 53005 =
2018-06-24 18:53 METAR KTTN 242253Z 24005KT 10SM BKN050 BKN060 OVC085 29/19 A2977 RMK AO2
                 RAB15E25 SLP074 P0000 T02890189 =
2018-06-24 17:53 METAR KTTN 242153Z 22004KT 10SM FEW050 SCT065 BKN080 29/18 A2978 RMK AO2 SLP076
                 T02940183 =
2018-06-24 16:53 METAR KTTN 242053Z 25007KT 10SM OVC090 31/18 A2978 RMK AO2 SLP076 T03060183
                 56010 =
2018-06-24 15:53 METAR KTTN 241953Z 25009G18KT 10SM FEW055 SCT100 31/18 A2978 RMK AO2 SLP078
                 T03060183 =
2018-06-24 14:53 METAR KTTN 241853Z 25010G15KT 10SM FEW049 31/19 A2980 RMK AO2 SLP082 T03110189 =
2018-06-24 13:53 METAR KTTN 241753Z 30009KT 10SM FEW048 BKN090 31/18 A2981 RMK AO2 SLP087
                 T03060183 10311 20211 56007 =
2018-06-24 12:53 METAR KTTN 241653Z 26009KT 10SM FEW042 FEW075 29/19 A2981 RMK AO2 SLP087
                 T02940189 =
2018-06-24 11:53 METAR KTTN 241553Z 29007KT 10SM FEW038 29/19 A2983 RMK AO2 SLP093 T02890194 =
2018-06-24 10:53 METAR KTTN 241453Z 26004KT 10SM FEW024 28/21 A2983 RMK AO2 SLP094 T02780206
                 58003 =
2018-06-24 10:18 METAR KTTN 241418Z VRB06KT 10SM FEW016 SCT023 26/20 A2983 RMK AO2 T02610200 =
2018-06-24 09:53 METAR KTTN 241353Z 24007KT 10SM BKN015 BKN021 25/21 A2984 RMK AO2 SLP097
                 T02500206 =
2018-06-24 09:24 METAR KTTN 241324Z 19003KT 7SM BKN010 BKN016 24/21 A2984 RMK AO2 CIG 008V013
                 T02390206 =
2018-06-24 09:13 METAR KTTN 241313Z 22003KT 6SM HZ SCT010 BKN016 23/21 A2984 RMK AO2 T02330206 =
2018-06-24 08:53 METAR KTTN 241253Z 24003KT 5SM BR BKN005 BKN010 23/21 A2984 RMK AO2 SLP099
                 T02330211 =
2018-06-24 08:37 METAR KTTN 241237Z 00000KT 4SM BR OVC005 22/21 A2984 RMK AO2 CIG 003V007
                 T02170206 =
2018-06-24 08:09 METAR KTTN 241209Z VRB04KT 3SM BR OVC003 21/20 A2985 RMK AO2 T02110200 =
2018-06-24 07:53 METAR KTTN 241153Z 21003KT 2SM BR OVC002 21/20 A2984 RMK AO2 SLP098 T02110200
                 10211 20194 51008 =
2018-06-24 07:26 METAR KTTN 241126Z 22003KT 1 1/4SM BR OVC002 21/20 A2983 RMK AO2 T02060200 =
2018-06-24 06:53 METAR KTTN 241053Z 18004KT 1/2SM FG VV002 20/19 A2984 RMK AO2 SLP097 T02000194 =
2018-06-24 05:53 METAR KTTN 240953Z 19004KT 1/4SM FG VV002 19/19 A2983 RMK AO2 SLP095 T01940189 =
2018-06-24 04:53 METAR KTTN 240853Z AUTO 16005KT 1/2SM FG VV002 19/19 A2982 RMK AO2 SLP089
                 T01940189 55000 =
2018-06-24 03:53 METAR KTTN 240753Z AUTO 17006KT 1/2SM FG VV002 19/19 A2981 RMK AO2 SLP088
                 T01940189 =
2018-06-24 03:35 METAR KTTN 240735Z AUTO 17006KT 3/4SM BR VV002 19/19 A2981 RMK AO2 T01940189 =
2018-06-24 03:21 METAR KTTN 240721Z AUTO 17005KT 1 1/2SM BR OVC002 20/19 A2981 RMK AO2 T02000194
                 =
2018-06-24 02:53 METAR KTTN 240653Z AUTO 00000KT 2SM BR OVC003 19/19 A2981 RMK AO2 SLP088
                 T01940189 =
2018-06-24 02:40 METAR KTTN 240640Z AUTO 09003KT 2SM BR OVC003 19/19 A2981 RMK AO2 T01940189 =
2018-06-24 02:13 METAR KTTN 240613Z AUTO 05004KT 5SM BR OVC004 20/19 A2981 RMK AO2 T02000189 =
2018-06-24 01:53 METAR KTTN 240553Z AUTO 09003KT 5SM BR OVC005 20/19 A2982 RMK AO2 SLP090
                 T02000189 10211 20200 58004 =
2018-06-24 00:53 METAR KTTN 240453Z AUTO 08003KT 6SM BR OVC005 20/19 A2982 RMK AO2 SLP092
                 T02000189 402170167 =

Support USWX by starting your Amazon purchase here.